createdAt,value
2019-02-18T00:01:07.262Z,20.07
2019-02-18T00:03:36.746Z,16.33
2019-02-18T00:06:06.216Z,16.23
2019-02-18T00:08:36.233Z,15.48
2019-02-18T00:11:05.695Z,15.70
2019-02-18T00:13:36.262Z,17.20
2019-02-18T00:16:05.857Z,19.80
2019-02-18T00:18:36.238Z,19.30
2019-02-18T00:21:06.037Z,17.87
2019-02-18T00:23:36.235Z,16.95
2019-02-18T00:26:05.688Z,16.63
2019-02-18T00:28:36.979Z,16.60
2019-02-18T00:31:06.500Z,17.23
2019-02-18T00:33:36.304Z,15.10
2019-02-18T00:36:05.779Z,15.77
2019-02-18T00:38:36.229Z,14.25
2019-02-18T00:41:05.677Z,17.00
2019-02-18T00:43:36.256Z,16.42
2019-02-18T00:46:05.777Z,15.13
2019-02-18T00:48:36.251Z,19.27
2019-02-18T00:51:05.785Z,16.10
2019-02-18T00:53:36.277Z,18.87
2019-02-18T00:56:05.734Z,14.27
2019-02-18T00:58:36.248Z,15.02
2019-02-18T01:01:05.730Z,12.93
2019-02-18T01:03:36.264Z,13.52
2019-02-18T01:06:05.887Z,16.67
2019-02-18T01:08:36.457Z,17.24
2019-02-18T01:11:05.986Z,15.67
2019-02-18T01:13:36.453Z,14.45
2019-02-18T01:16:05.998Z,13.80
2019-02-18T01:18:36.631Z,16.05
2019-02-18T01:21:06.089Z,14.90
2019-02-18T01:23:36.440Z,13.88
2019-02-18T01:26:06.002Z,15.97
2019-02-18T01:28:36.466Z,13.68
2019-02-18T01:31:06.064Z,15.17
2019-02-18T01:33:36.495Z,15.05
2019-02-18T01:36:06.027Z,14.00
2019-02-18T01:38:36.756Z,12.30
2019-02-18T01:41:06.218Z,15.33
2019-02-18T01:43:36.672Z,13.28
2019-02-18T01:46:06.296Z,18.37
2019-02-18T01:48:36.662Z,13.80
2019-02-18T01:51:06.118Z,15.40
2019-02-18T01:53:36.684Z,13.88
2019-02-18T01:56:06.212Z,14.70
2019-02-18T01:58:36.673Z,14.93
2019-02-18T02:01:06.221Z,13.10
2019-02-18T02:03:36.681Z,15.30
2019-02-18T02:06:06.234Z,15.00
2019-02-18T02:08:36.679Z,15.05
2019-02-18T02:11:06.208Z,12.97
2019-02-18T02:13:37.629Z,17.48
2019-02-18T02:16:09.003Z,16.60
2019-02-18T02:18:38.464Z,15.77
2019-02-18T02:21:08.087Z,15.07
2019-02-18T02:23:37.554Z,15.80
2019-02-18T02:26:07.035Z,15.60
2019-02-18T02:28:36.688Z,14.58
2019-02-18T02:31:06.135Z,13.33
2019-02-18T02:33:36.701Z,15.00
2019-02-18T02:36:06.182Z,15.63
2019-02-18T02:38:36.681Z,18.44
2019-02-18T02:41:06.311Z,17.00
2019-02-18T02:43:36.670Z,16.73
2019-02-18T02:46:06.129Z,15.60
2019-02-18T02:48:36.723Z,16.38
2019-02-18T02:51:06.253Z,14.30
2019-02-18T02:53:36.734Z,15.40
2019-02-18T02:56:06.195Z,14.73
2019-02-18T02:58:36.710Z,14.18
2019-02-18T03:01:06.259Z,14.77
2019-02-18T03:03:36.715Z,15.08
2019-02-18T03:06:06.261Z,17.50
2019-02-18T03:08:36.721Z,16.30
2019-02-18T03:11:06.263Z,15.97
2019-02-18T03:13:36.751Z,13.50
2019-02-18T03:16:06.750Z,15.47
2019-02-18T03:18:36.711Z,14.70
2019-02-18T03:21:06.206Z,16.70
2019-02-18T03:23:36.718Z,15.98
2019-02-18T03:26:06.182Z,16.80
2019-02-18T03:28:53.031Z,14.62
2019-02-18T03:31:26.414Z,14.60
2019-02-18T03:34:09.437Z,12.40
2019-02-18T03:36:38.901Z,12.07
2019-02-18T03:39:08.402Z,11.77
2019-02-18T03:41:40.804Z,13.00
2019-02-18T03:44:09.033Z,20.47
2019-02-18T03:46:38.515Z,13.87
2019-02-18T03:49:08.043Z,13.43
2019-02-18T03:51:37.514Z,14.50
2019-02-18T03:54:07.129Z,19.20
2019-02-18T03:56:36.660Z,17.70
2019-02-18T03:59:06.120Z,13.50
2019-02-18T04:01:35.742Z,16.87
2019-02-18T04:04:05.374Z,14.57
2019-02-18T04:06:34.844Z,13.50
2019-02-18T04:09:05.187Z,22.60
2019-02-18T04:11:34.620Z,12.73
2019-02-18T04:14:04.105Z,14.67
2019-02-18T04:16:33.570Z,15.03
2019-02-18T04:19:03.038Z,12.60
2019-02-18T04:21:32.514Z,15.03
2019-02-18T04:24:01.996Z,16.97
2019-02-18T04:26:31.459Z,12.67
2019-02-18T04:29:01.170Z,12.80
2019-02-18T04:31:30.733Z,15.55
2019-02-18T04:34:00.198Z,15.70
2019-02-18T04:36:29.650Z,15.60
2019-02-18T04:38:59.137Z,14.30
2019-02-18T04:41:28.608Z,12.25
2019-02-18T04:43:58.094Z,12.80
2019-02-18T04:46:27.562Z,13.60
2019-02-18T04:48:57.020Z,13.37
2019-02-18T04:51:26.506Z,10.85
2019-02-18T04:53:56.040Z,12.70
2019-02-18T04:56:25.509Z,13.13
2019-02-18T04:58:54.997Z,12.20
2019-02-18T05:01:24.464Z,13.40
2019-02-18T05:03:54.008Z,12.60
2019-02-18T05:06:25.431Z,12.50
2019-02-18T05:09:04.806Z,12.47
2019-02-18T05:11:25.902Z,11.30
2019-02-18T05:13:55.374Z,10.30
2019-02-18T05:16:24.839Z,13.10
2019-02-18T05:18:54.326Z,12.82
2019-02-18T05:21:23.914Z,12.73
2019-02-18T05:23:53.455Z,12.82
2019-02-18T05:26:22.927Z,13.48
2019-02-18T05:28:52.397Z,14.97
2019-02-18T05:31:21.878Z,14.10
2019-02-18T05:33:51.385Z,10.40
2019-02-18T05:36:20.824Z,10.00
2019-02-18T05:38:50.302Z,12.10
2019-02-18T05:41:19.792Z,11.70
2019-02-18T05:43:49.288Z,11.80
2019-02-18T05:46:18.727Z,13.53
2019-02-18T05:48:48.213Z,12.55
2019-02-18T05:51:17.674Z,12.13
2019-02-18T05:53:47.141Z,10.75
2019-02-18T05:56:16.626Z,15.73
2019-02-18T05:58:46.105Z,15.43
2019-02-18T06:01:17.219Z,15.40
2019-02-18T06:03:46.683Z,10.40
2019-02-18T06:06:16.171Z,10.70
2019-02-18T06:08:45.885Z,13.70
2019-02-18T06:11:15.367Z,24.52
2019-02-18T06:13:44.849Z,9.50
2019-02-18T06:16:14.334Z,11.73
2019-02-18T06:18:43.801Z,13.65
2019-02-18T06:21:13.271Z,14.45
2019-02-18T06:23:42.763Z,13.30
2019-02-18T06:26:12.220Z,13.22
2019-02-18T06:28:41.694Z,13.96
2019-02-18T06:31:11.181Z,14.25
2019-02-18T06:33:40.658Z,12.20
2019-02-18T06:36:10.123Z,15.15
2019-02-18T06:38:39.611Z,11.68
2019-02-18T06:41:09.135Z,13.43
2019-02-18T06:43:38.670Z,13.00
2019-02-18T06:46:09.797Z,13.50
2019-02-18T06:48:40.886Z,12.43
2019-02-18T06:51:10.377Z,12.75
2019-02-18T06:53:39.836Z,14.67
2019-02-18T06:56:09.318Z,16.25
2019-02-18T06:58:40.425Z,12.53
2019-02-18T07:01:11.603Z,12.82
2019-02-18T07:03:42.726Z,12.23
2019-02-18T07:06:19.504Z,11.90
2019-02-18T07:09:02.157Z,11.50
2019-02-18T07:11:45.354Z,11.47
2019-02-18T07:14:15.092Z,28.27
2019-02-18T07:16:44.580Z,12.37
2019-02-18T07:19:14.305Z,13.97
2019-02-18T07:21:43.773Z,12.98
2019-02-18T07:24:15.315Z,21.60
2019-02-18T07:26:44.437Z,12.40
2019-02-18T07:29:13.903Z,15.23
2019-02-18T07:31:43.387Z,13.17
2019-02-18T07:34:12.868Z,20.03
2019-02-18T07:36:42.328Z,12.40
2019-02-18T07:39:11.812Z,14.33
2019-02-18T07:41:41.291Z,12.73
2019-02-18T07:44:10.754Z,19.02
2019-02-18T07:46:40.228Z,14.40
2019-02-18T07:49:09.688Z,12.05
2019-02-18T07:51:39.159Z,14.00
2019-02-18T07:54:10.277Z,20.80
2019-02-18T07:56:39.844Z,15.03
2019-02-18T07:59:09.318Z,13.10
2019-02-18T08:01:38.832Z,14.07
2019-02-18T08:04:08.317Z,20.13
2019-02-18T08:06:37.785Z,16.40
2019-02-18T08:09:07.500Z,18.07
2019-02-18T08:11:36.947Z,15.60
2019-02-18T08:14:06.413Z,24.60
2019-02-18T08:16:35.867Z,14.67
2019-02-18T08:19:05.340Z,14.10
2019-02-18T08:21:34.803Z,13.40
2019-02-18T08:24:04.258Z,14.90
2019-02-18T08:26:33.730Z,12.40
2019-02-18T08:29:03.187Z,12.57
2019-02-18T08:31:32.636Z,12.13
2019-02-18T08:34:02.112Z,14.13
2019-02-18T08:36:31.567Z,12.70
2019-02-18T08:39:01.055Z,12.27
2019-02-18T08:41:30.509Z,12.00
2019-02-18T08:43:59.981Z,11.40
2019-02-18T08:46:29.440Z,10.13
2019-02-18T08:48:58.920Z,11.67
2019-02-18T08:51:28.397Z,13.30
2019-02-18T08:53:57.853Z,12.20
2019-02-18T08:56:27.319Z,10.27
2019-02-18T08:58:56.796Z,11.15
2019-02-18T09:01:26.258Z,9.80
2019-02-18T09:03:55.728Z,9.73
2019-02-18T09:06:25.183Z,9.17
2019-02-18T09:08:54.635Z,8.67
2019-02-18T09:11:24.197Z,11.87
2019-02-18T09:13:53.789Z,10.23
2019-02-18T09:16:23.261Z,11.27
2019-02-18T09:18:52.731Z,16.53
2019-02-18T09:21:22.202Z,13.70
2019-02-18T09:23:59.017Z,11.97
2019-02-18T09:26:28.492Z,14.57
2019-02-18T09:28:57.964Z,12.33
2019-02-18T09:31:28.685Z,11.37
2019-02-18T09:33:58.160Z,14.97
2019-02-18T09:36:27.611Z,12.85
2019-02-18T09:38:57.140Z,14.50
2019-02-18T09:41:26.617Z,13.57
2019-02-18T09:43:56.063Z,14.93
2019-02-18T09:46:25.592Z,14.40
2019-02-18T09:48:55.072Z,16.50
2019-02-18T09:51:24.530Z,15.27
2019-02-18T09:53:53.999Z,16.40
2019-02-18T09:56:23.464Z,17.40
2019-02-18T09:58:52.920Z,15.47
2019-02-18T10:01:22.464Z,17.13
2019-02-18T10:03:51.975Z,17.10
2019-02-18T10:06:21.413Z,16.47
2019-02-18T10:08:50.902Z,18.90
2019-02-18T10:11:20.351Z,17.97
2019-02-18T10:13:49.804Z,19.47
2019-02-18T10:16:19.276Z,20.60
2019-02-18T10:18:48.736Z,18.60
2019-02-18T10:21:18.219Z,21.67
2019-02-18T10:23:47.673Z,20.70
2019-02-18T10:26:17.128Z,22.80
2019-02-18T10:28:46.606Z,20.23
2019-02-18T10:31:16.064Z,18.90
2019-02-18T10:33:45.522Z,22.90
2019-02-18T10:36:14.998Z,21.17
2019-02-18T10:38:44.455Z,21.07
2019-02-18T10:41:13.916Z,19.90
2019-02-18T10:43:43.399Z,19.30
2019-02-18T10:46:12.867Z,19.87
2019-02-18T10:48:42.579Z,17.57
2019-02-18T10:51:12.122Z,21.60
2019-02-18T10:53:41.587Z,18.60
2019-02-18T10:56:11.043Z,22.40
2019-02-18T10:58:40.517Z,19.35
2019-02-18T11:01:10.043Z,21.17
2019-02-18T11:03:39.504Z,19.12
2019-02-18T11:06:09.408Z,19.67
2019-02-18T11:08:38.991Z,17.90
2019-02-18T11:11:16.635Z,18.10
2019-02-18T11:13:39.649Z,19.80
2019-02-18T11:16:09.356Z,22.33
2019-02-18T11:18:38.832Z,19.80
2019-02-18T11:21:08.570Z,19.50
2019-02-18T11:23:38.051Z,20.47
2019-02-18T11:26:07.505Z,18.90
2019-02-18T11:28:37.266Z,17.55
2019-02-18T11:31:06.820Z,17.50
2019-02-18T11:33:37.281Z,19.10
2019-02-18T11:36:06.768Z,19.07
2019-02-18T11:38:37.207Z,17.30
2019-02-18T11:41:06.733Z,19.17
2019-02-18T11:43:37.223Z,18.12
2019-02-18T11:46:06.698Z,16.80
2019-02-18T11:48:37.263Z,19.07
2019-02-18T11:51:06.700Z,19.80
2019-02-18T11:53:37.399Z,17.70
2019-02-18T11:56:06.892Z,16.90
2019-02-18T11:58:37.402Z,18.15
2019-02-18T12:01:07.000Z,17.03
2019-02-18T12:03:37.401Z,16.50
2019-02-18T12:06:06.883Z,15.07
2019-02-18T12:08:37.402Z,15.30
2019-02-18T12:11:06.956Z,17.30
2019-02-18T12:13:37.401Z,16.27
2019-02-18T12:16:07.412Z,15.87
2019-02-18T12:18:37.413Z,19.35
2019-02-18T12:21:06.870Z,18.20
2019-02-18T12:23:37.431Z,15.86
2019-02-18T12:26:06.908Z,14.18
2019-02-18T12:28:37.682Z,14.45
2019-02-18T12:31:07.596Z,15.63
2019-02-18T12:33:37.437Z,13.98
2019-02-18T12:36:07.149Z,14.18
2019-02-18T12:38:37.425Z,13.35
2019-02-18T12:41:06.903Z,14.17
2019-02-18T12:43:37.451Z,12.40
2019-02-18T12:46:15.554Z,15.70
2019-02-18T12:48:38.206Z,13.30
2019-02-18T12:51:07.909Z,13.10
2019-02-18T12:53:37.441Z,15.70
2019-02-18T12:56:06.980Z,15.60
2019-02-18T12:58:37.515Z,16.20
2019-02-18T13:01:08.188Z,13.87
2019-02-18T13:03:37.743Z,13.87
2019-02-18T13:06:07.215Z,13.70
2019-02-18T13:08:37.458Z,15.03
2019-02-18T13:11:06.995Z,13.90
2019-02-18T13:13:37.419Z,14.45
2019-02-18T13:16:06.907Z,14.00
2019-02-18T13:18:37.441Z,12.50
2019-02-18T13:21:06.906Z,13.37
2019-02-18T13:23:37.497Z,13.70
2019-02-18T13:26:06.978Z,15.40
2019-02-18T13:28:37.440Z,12.15
2019-02-18T13:31:06.905Z,14.13
2019-02-18T13:33:37.649Z,9.82
2019-02-18T13:36:11.254Z,13.83
2019-02-18T13:38:40.739Z,14.30
2019-02-18T13:41:10.360Z,13.03
2019-02-18T13:43:39.823Z,13.23
2019-02-18T13:46:09.564Z,12.67
2019-02-18T13:48:39.114Z,16.42
2019-02-18T13:51:08.573Z,14.50
2019-02-18T13:53:38.039Z,18.07
2019-02-18T13:56:07.946Z,15.37
2019-02-18T13:58:37.633Z,15.03
2019-02-18T14:01:07.815Z,15.07
2019-02-18T14:03:37.909Z,14.63
2019-02-18T14:06:07.444Z,13.77
2019-02-18T14:08:37.665Z,14.50
2019-02-18T14:11:07.137Z,14.47
2019-02-18T14:13:37.629Z,12.70
2019-02-18T14:16:07.257Z,13.20
2019-02-18T14:18:37.651Z,14.63
2019-02-18T14:21:07.108Z,13.90
2019-02-18T14:23:37.670Z,17.85
2019-02-18T14:26:07.589Z,15.90
2019-02-18T14:28:37.666Z,14.78
2019-02-18T14:31:07.197Z,14.10
2019-02-18T14:33:37.676Z,13.58
2019-02-18T14:36:07.141Z,13.68
2019-02-18T14:38:37.912Z,16.93
2019-02-18T14:41:07.603Z,14.80
2019-02-18T14:43:37.739Z,12.13
2019-02-18T14:46:07.297Z,13.77
2019-02-18T14:48:37.670Z,17.73
2019-02-18T14:51:07.134Z,15.20
2019-02-18T14:53:37.693Z,14.90
2019-02-18T14:56:07.394Z,16.53
2019-02-18T14:58:37.665Z,13.55
2019-02-18T15:01:07.776Z,14.67
2019-02-18T15:03:37.830Z,14.50
2019-02-18T15:06:07.318Z,14.27
2019-02-18T15:08:37.674Z,13.30
2019-02-18T15:11:07.845Z,14.40
2019-02-18T15:13:37.694Z,14.25
2019-02-18T15:16:07.226Z,14.00
2019-02-18T15:18:37.688Z,12.25
2019-02-18T15:21:07.173Z,14.60
2019-02-18T15:23:37.711Z,13.90
2019-02-18T15:26:07.447Z,13.87
2019-02-18T15:28:37.720Z,14.10
2019-02-18T15:31:07.174Z,13.20
2019-02-18T15:33:37.709Z,13.32
2019-02-18T15:36:07.198Z,10.10
2019-02-18T15:38:37.708Z,11.60
2019-02-18T15:41:07.238Z,11.90
2019-02-18T15:43:37.724Z,14.73
2019-02-18T15:46:07.315Z,13.07
2019-02-18T15:48:37.702Z,14.63
2019-02-18T15:51:07.188Z,15.40
2019-02-18T15:53:37.718Z,13.38
2019-02-18T15:56:07.240Z,12.47
2019-02-18T15:58:37.738Z,13.40
2019-02-18T16:01:07.342Z,11.57
2019-02-18T16:03:37.787Z,13.00
2019-02-18T16:06:07.264Z,12.20
2019-02-18T16:08:37.860Z,13.85
2019-02-18T16:11:07.329Z,12.50
2019-02-18T16:13:37.725Z,15.18
2019-02-18T16:16:07.188Z,13.97
2019-02-18T16:18:37.931Z,15.87
2019-02-18T16:21:07.395Z,15.37
2019-02-18T16:23:37.907Z,12.12
2019-02-18T16:26:07.387Z,14.87
2019-02-18T16:28:38.011Z,17.12
2019-02-18T16:31:07.485Z,14.00
2019-02-18T16:33:37.955Z,14.15
2019-02-18T16:36:07.433Z,16.17
2019-02-18T16:38:37.918Z,13.35
2019-02-18T16:41:07.398Z,12.18
2019-02-18T16:43:37.951Z,12.98
2019-02-18T16:46:07.411Z,15.53
2019-02-18T16:48:37.932Z,11.92
2019-02-18T16:51:07.404Z,12.60
2019-02-18T16:53:38.022Z,16.00
2019-02-18T16:56:07.474Z,14.50
2019-02-18T16:58:37.954Z,15.30
2019-02-18T17:01:08.233Z,13.40
2019-02-18T17:03:38.163Z,14.80
2019-02-18T17:06:07.651Z,24.13
2019-02-18T17:08:37.930Z,20.40
2019-02-18T17:11:07.403Z,19.57
2019-02-18T17:13:38.035Z,16.34
2019-02-18T17:16:07.492Z,16.03
2019-02-18T17:18:38.016Z,20.88
2019-02-18T17:21:07.576Z,17.87
2019-02-18T17:23:37.944Z,14.90
2019-02-18T17:26:07.400Z,19.37
2019-02-18T17:28:37.961Z,17.78
2019-02-18T17:31:07.416Z,15.80
2019-02-18T17:33:37.953Z,15.42
2019-02-18T17:36:07.430Z,14.03
2019-02-18T17:38:38.135Z,16.30
2019-02-18T17:41:07.606Z,15.23
2019-02-18T17:43:38.128Z,15.28
2019-02-18T17:46:08.128Z,19.90
2019-02-18T17:48:38.144Z,23.92
2019-02-18T17:51:07.607Z,17.67
2019-02-18T17:53:38.186Z,15.90
2019-02-18T17:56:07.640Z,18.27
2019-02-18T17:58:38.140Z,13.84
2019-02-18T18:01:08.002Z,14.03
2019-02-18T18:03:38.413Z,17.05
2019-02-18T18:06:07.862Z,22.50
2019-02-18T18:08:38.203Z,17.15
2019-02-18T18:11:07.681Z,16.87
2019-02-18T18:13:38.167Z,17.92
2019-02-18T18:16:10.847Z,16.57
2019-02-18T18:18:40.318Z,17.50
2019-02-18T18:21:09.790Z,20.77
2019-02-18T18:23:39.262Z,20.40
2019-02-18T18:26:08.715Z,21.47
2019-02-18T18:28:38.376Z,21.00
2019-02-18T18:31:07.825Z,18.00
2019-02-18T18:33:38.139Z,14.70
2019-02-18T18:36:07.623Z,16.83
2019-02-18T18:38:38.307Z,15.47
2019-02-18T18:41:07.764Z,14.70
2019-02-18T18:43:38.370Z,15.28
2019-02-18T18:46:07.826Z,18.50
2019-02-18T18:48:38.531Z,20.60
2019-02-18T18:51:07.995Z,19.70
2019-02-18T18:53:38.690Z,19.40
2019-02-18T18:56:08.173Z,20.40
2019-02-18T18:58:38.869Z,21.60
2019-02-18T19:01:08.320Z,18.67
2019-02-18T19:03:38.873Z,19.72
2019-02-18T19:06:08.341Z,15.97
2019-02-18T19:08:39.035Z,16.30
2019-02-18T19:11:08.511Z,16.50
2019-02-18T19:13:42.084Z,13.50
2019-02-18T19:16:10.266Z,16.10
2019-02-18T19:18:39.719Z,15.90
2019-02-18T19:21:09.219Z,16.60
2019-02-18T19:23:39.263Z,17.82
2019-02-18T19:26:08.719Z,15.80
2019-02-18T19:28:39.243Z,16.34
2019-02-18T19:31:08.723Z,16.97
2019-02-18T19:33:39.492Z,15.14
2019-02-18T19:36:08.946Z,14.07
2019-02-18T19:38:40.883Z,16.93
2019-02-18T19:41:10.340Z,16.00
2019-02-18T19:43:39.831Z,17.03
2019-02-18T19:46:09.282Z,18.60
2019-02-18T19:48:39.252Z,22.45
2019-02-18T19:51:08.930Z,22.60
2019-02-18T19:53:40.906Z,18.42
2019-02-18T19:56:10.377Z,18.57
2019-02-18T19:58:39.836Z,18.57
2019-02-18T20:01:09.292Z,15.47
2019-02-18T20:03:39.441Z,17.67
2019-02-18T20:06:08.913Z,15.25
2019-02-18T20:08:39.456Z,16.22
2019-02-18T20:11:09.175Z,18.47
2019-02-18T20:13:39.445Z,17.65
2019-02-18T20:16:08.908Z,17.60
2019-02-18T20:18:39.482Z,16.80
2019-02-18T20:21:08.938Z,22.47
2019-02-18T20:23:39.871Z,17.76
2019-02-18T20:26:09.354Z,22.33
2019-02-18T20:28:39.459Z,28.17
2019-02-18T20:31:08.909Z,20.90
2019-02-18T20:33:39.484Z,25.74
2019-02-18T20:36:08.940Z,24.10
2019-02-18T20:38:39.480Z,22.44
2019-02-18T20:41:08.941Z,23.73
2019-02-18T20:43:39.541Z,25.38
2019-02-18T20:46:09.195Z,26.50
2019-02-18T20:48:39.483Z,22.45
2019-02-18T20:51:08.941Z,22.50
2019-02-18T20:53:39.490Z,22.56
2019-02-18T20:56:08.946Z,20.63
2019-02-18T20:58:39.662Z,24.77
2019-02-18T21:01:09.138Z,24.10
2019-02-18T21:03:39.730Z,20.80
2019-02-18T21:06:09.213Z,25.37
2019-02-18T21:08:39.490Z,21.68
2019-02-18T21:11:09.339Z,18.70
2019-02-18T21:13:39.663Z,20.50
2019-02-18T21:16:09.127Z,18.63
2019-02-18T21:18:39.516Z,15.43
2019-02-18T21:21:08.967Z,16.63
2019-02-18T21:23:39.520Z,18.58
2019-02-18T21:26:09.001Z,18.37
2019-02-18T21:28:39.524Z,20.20
2019-02-18T21:31:08.999Z,17.13
2019-02-18T21:33:39.500Z,22.52
2019-02-18T21:36:08.986Z,16.50
2019-02-18T21:38:39.530Z,19.78
2019-02-18T21:41:09.270Z,17.17
2019-02-18T21:43:41.503Z,20.77
2019-02-18T21:46:10.963Z,21.60
2019-02-18T21:48:40.428Z,17.90
2019-02-18T21:51:09.913Z,21.00
2019-02-18T21:53:39.522Z,17.67
2019-02-18T21:56:09.413Z,18.40
2019-02-18T21:58:39.539Z,18.12
2019-02-18T22:01:08.996Z,16.47
2019-02-18T22:03:39.535Z,17.30
2019-02-18T22:06:09.022Z,19.20
2019-02-18T22:08:39.524Z,17.36
2019-02-18T22:11:08.982Z,16.00
2019-02-18T22:13:39.535Z,18.40
2019-02-18T22:16:09.055Z,18.70
2019-02-18T22:18:39.547Z,18.12
2019-02-18T22:21:09.002Z,18.47
2019-02-18T22:23:39.555Z,18.38
2019-02-18T22:26:09.020Z,17.70
2019-02-18T22:28:39.551Z,17.68
2019-02-18T22:31:09.024Z,16.03
2019-02-18T22:33:39.537Z,13.56
2019-02-18T22:36:09.088Z,17.10
2019-02-18T22:38:39.549Z,16.15
2019-02-18T22:41:09.007Z,16.03
2019-02-18T22:43:39.568Z,20.42
2019-02-18T22:46:09.022Z,17.03
2019-02-18T22:48:41.244Z,17.84
2019-02-18T22:51:10.749Z,17.60
2019-02-18T22:53:40.199Z,15.10
2019-02-18T22:56:09.677Z,18.47
2019-02-18T22:58:39.688Z,14.47
2019-02-18T23:01:09.479Z,16.85
2019-02-18T23:03:39.738Z,13.03
2019-02-18T23:06:09.286Z,16.20
2019-02-18T23:08:39.711Z,14.68
2019-02-18T23:11:09.168Z,16.60
2019-02-18T23:13:39.723Z,16.30
2019-02-18T23:16:09.196Z,14.87
2019-02-18T23:18:39.721Z,16.64
2019-02-18T23:21:09.193Z,16.57
2019-02-18T23:23:39.733Z,16.70
2019-02-18T23:26:09.181Z,16.00
2019-02-18T23:28:39.722Z,15.06
2019-02-18T23:31:09.180Z,18.43
2019-02-18T23:33:39.897Z,19.20
2019-02-18T23:36:09.349Z,19.37
2019-02-18T23:38:39.931Z,19.24
2019-02-18T23:41:09.415Z,20.80
2019-02-18T23:43:39.981Z,21.65
2019-02-18T23:46:09.434Z,22.00
2019-02-18T23:48:42.530Z,20.90
2019-02-18T23:51:12.011Z,21.30
2019-02-18T23:53:41.487Z,16.30
2019-02-18T23:56:10.939Z,17.47
2019-02-18T23:58:40.398Z,17.60
